createdAt,value
2018-01-29T00:00:16.090Z,89.71
2018-01-29T00:02:44.534Z,89.76
2018-01-29T00:05:13.390Z,89.50
2018-01-29T00:07:41.850Z,89.60
2018-01-29T00:10:10.253Z,89.24
2018-01-29T00:12:38.645Z,89.00
2018-01-29T00:15:07.358Z,89.37
2018-01-29T00:17:35.851Z,88.77
2018-01-29T00:20:04.306Z,89.13
2018-01-29T00:22:32.778Z,88.74
2018-01-29T00:25:01.185Z,89.14
2018-01-29T00:27:29.570Z,88.57
2018-01-29T00:29:58.026Z,88.67
2018-01-29T00:32:26.456Z,88.47
2018-01-29T00:34:54.886Z,88.63
2018-01-29T00:37:23.339Z,88.67
2018-01-29T00:39:51.769Z,88.94
2018-01-29T00:42:20.195Z,89.11
2018-01-29T00:44:48.675Z,89.28
2018-01-29T00:47:17.088Z,89.23
2018-01-29T00:49:45.500Z,89.18
2018-01-29T00:52:13.946Z,89.11
2018-01-29T00:54:42.377Z,88.92
2018-01-29T00:57:10.846Z,89.01
2018-01-29T00:59:39.328Z,89.08
2018-01-29T01:02:07.738Z,88.89
2018-01-29T01:04:36.147Z,89.15
2018-01-29T01:07:04.651Z,88.91
2018-01-29T01:09:33.115Z,88.97
2018-01-29T01:12:01.529Z,88.74
2018-01-29T01:14:29.996Z,88.35
2018-01-29T01:16:58.439Z,88.40
2018-01-29T01:19:26.850Z,88.08
2018-01-29T01:21:55.283Z,87.85
2018-01-29T01:24:23.676Z,87.77
2018-01-29T01:26:52.130Z,87.81
2018-01-29T01:29:20.581Z,87.69
2018-01-29T01:31:49.007Z,87.60
2018-01-29T01:34:17.404Z,87.49
2018-01-29T01:36:45.875Z,87.57
2018-01-29T01:39:14.291Z,87.75
2018-01-29T01:41:42.712Z,87.76
2018-01-29T01:44:11.177Z,87.55
2018-01-29T01:46:39.586Z,87.17
2018-01-29T01:49:07.990Z,87.31
2018-01-29T01:51:36.507Z,87.58
2018-01-29T01:54:04.890Z,87.29
2018-01-29T01:56:33.287Z,87.22
2018-01-29T01:59:01.734Z,87.57
2018-01-29T02:01:30.148Z,87.90
2018-01-29T02:03:58.567Z,88.15
2018-01-29T02:06:27.016Z,87.56
2018-01-29T02:08:55.410Z,87.89
2018-01-29T02:11:23.831Z,88.06
2018-01-29T02:13:52.290Z,88.03
2018-01-29T02:16:20.712Z,88.25
2018-01-29T02:18:49.116Z,88.10
2018-01-29T02:21:17.578Z,88.31
2018-01-29T02:23:46.020Z,88.29
2018-01-29T02:26:14.469Z,88.68
2018-01-29T02:28:42.929Z,88.53
2018-01-29T02:31:11.332Z,88.46
2018-01-29T02:33:39.767Z,88.53
2018-01-29T02:36:08.312Z,88.50
2018-01-29T02:38:36.718Z,88.53
2018-01-29T02:41:05.097Z,87.96
2018-01-29T02:43:33.616Z,87.94
2018-01-29T02:46:02.032Z,87.86
2018-01-29T02:48:30.469Z,87.32
2018-01-29T02:50:58.942Z,87.28
2018-01-29T02:53:27.377Z,87.25
2018-01-29T02:55:55.805Z,86.81
2018-01-29T02:58:24.280Z,87.06
2018-01-29T03:00:52.690Z,86.97
2018-01-29T03:03:21.138Z,86.81
2018-01-29T03:05:49.615Z,86.61
2018-01-29T03:08:18.018Z,86.75
2018-01-29T03:10:46.416Z,86.70
2018-01-29T03:13:14.837Z,86.49
2018-01-29T03:15:43.253Z,86.50
2018-01-29T03:18:11.669Z,86.22
2018-01-29T03:20:40.110Z,86.11
2018-01-29T03:23:08.500Z,86.29
2018-01-29T03:25:36.917Z,85.60
2018-01-29T03:28:05.346Z,85.85
2018-01-29T03:30:33.797Z,85.52
2018-01-29T03:33:02.251Z,85.71
2018-01-29T03:35:30.695Z,85.61
2018-01-29T03:37:59.146Z,85.29
2018-01-29T03:40:27.590Z,85.06
2018-01-29T03:42:56.071Z,84.57
2018-01-29T03:45:24.493Z,85.10
2018-01-29T03:47:52.912Z,85.10
2018-01-29T03:50:21.375Z,84.89
2018-01-29T03:52:49.848Z,84.96
2018-01-29T03:55:18.253Z,84.74
2018-01-29T03:57:46.681Z,84.60
2018-01-29T04:00:15.085Z,84.56
2018-01-29T04:02:43.502Z,84.90
2018-01-29T04:05:11.968Z,84.51
2018-01-29T04:07:40.355Z,84.53
2018-01-29T04:10:08.782Z,84.18
2018-01-29T04:12:37.241Z,84.05
2018-01-29T04:15:05.669Z,84.16
2018-01-29T04:17:34.088Z,84.59
2018-01-29T04:20:02.562Z,84.31
2018-01-29T04:22:30.961Z,84.18
2018-01-29T04:24:59.382Z,84.22
2018-01-29T04:27:27.835Z,83.79
2018-01-29T04:29:56.298Z,83.53
2018-01-29T04:32:24.729Z,83.79
2018-01-29T04:34:53.188Z,83.71
2018-01-29T04:37:21.588Z,83.80
2018-01-29T04:39:50.018Z,83.91
2018-01-29T04:42:18.460Z,84.01
2018-01-29T04:44:46.889Z,84.07
2018-01-29T04:47:15.354Z,83.97
2018-01-29T04:49:43.818Z,83.63
2018-01-29T04:52:12.206Z,83.57
2018-01-29T04:54:40.591Z,83.70
2018-01-29T04:57:09.037Z,83.30
2018-01-29T04:59:37.454Z,83.62
2018-01-29T05:02:05.844Z,83.01
2018-01-29T05:04:34.305Z,82.94
2018-01-29T05:07:02.712Z,82.71
2018-01-29T05:09:31.169Z,83.10
2018-01-29T05:11:59.607Z,82.41
2018-01-29T05:14:28.024Z,82.61
2018-01-29T05:16:56.429Z,82.48
2018-01-29T05:19:24.890Z,82.39
2018-01-29T05:21:53.273Z,82.52
2018-01-29T05:24:21.706Z,81.93
2018-01-29T05:26:50.322Z,82.35
2018-01-29T05:29:18.746Z,82.63
2018-01-29T05:31:47.127Z,82.20
2018-01-29T05:34:15.624Z,82.04
2018-01-29T05:36:45.849Z,82.25
2018-01-29T05:39:14.301Z,82.14
2018-01-29T05:41:42.788Z,81.58
2018-01-29T05:44:11.225Z,82.00
2018-01-29T05:46:39.647Z,81.57
2018-01-29T05:49:08.149Z,81.56
2018-01-29T05:51:36.587Z,81.15
2018-01-29T05:54:05.039Z,80.95
2018-01-29T05:56:33.506Z,81.42
2018-01-29T05:59:01.906Z,81.84
2018-01-29T06:01:30.341Z,81.80
2018-01-29T06:03:58.778Z,81.40
2018-01-29T06:06:27.471Z,81.12
2018-01-29T06:08:55.916Z,81.47
2018-01-29T06:11:24.416Z,81.19
2018-01-29T06:13:52.825Z,80.91
2018-01-29T06:16:21.251Z,81.04
2018-01-29T06:18:49.774Z,80.27
2018-01-29T06:21:18.160Z,80.28
2018-01-29T06:23:46.573Z,80.02
2018-01-29T06:26:15.042Z,80.05
2018-01-29T06:28:43.446Z,80.36
2018-01-29T06:31:11.841Z,79.89
2018-01-29T06:33:40.268Z,79.57
2018-01-29T06:36:08.681Z,79.15
2018-01-29T06:38:37.105Z,79.64
2018-01-29T06:41:05.543Z,79.51
2018-01-29T06:43:33.939Z,79.15
2018-01-29T06:46:02.401Z,79.36
2018-01-29T06:48:30.890Z,79.42
2018-01-29T06:50:59.303Z,78.92
2018-01-29T06:53:27.742Z,78.25
2018-01-29T06:55:56.190Z,78.55
2018-01-29T06:58:24.680Z,78.13
2018-01-29T07:00:53.145Z,78.36
2018-01-29T07:03:21.590Z,78.16
2018-01-29T07:05:50.006Z,78.37
2018-01-29T07:08:18.412Z,78.43
2018-01-29T07:10:46.872Z,78.30
2018-01-29T07:13:15.281Z,78.21
2018-01-29T07:15:43.706Z,78.41
2018-01-29T07:18:12.344Z,77.57
2018-01-29T07:20:40.767Z,77.95
2018-01-29T07:23:09.184Z,77.75
2018-01-29T07:25:37.681Z,78.18
2018-01-29T07:28:06.096Z,78.75
2018-01-29T07:30:34.509Z,78.24
2018-01-29T07:33:02.959Z,78.15
2018-01-29T07:35:31.363Z,77.27
2018-01-29T07:37:59.784Z,76.80
2018-01-29T07:40:28.250Z,77.15
2018-01-29T07:42:56.685Z,76.19
2018-01-29T07:45:25.114Z,76.18
2018-01-29T07:47:53.569Z,76.32
2018-01-29T07:50:21.986Z,76.42
2018-01-29T07:52:50.410Z,76.37
2018-01-29T07:55:18.857Z,75.71
2018-01-29T07:57:47.272Z,76.54
2018-01-29T08:00:15.676Z,76.73
2018-01-29T08:02:44.130Z,75.89
2018-01-29T08:05:13.477Z,75.59
2018-01-29T08:07:41.973Z,76.02
2018-01-29T08:10:10.442Z,75.76
2018-01-29T08:12:38.863Z,76.20
2018-01-29T08:15:07.285Z,75.79
2018-01-29T08:17:35.745Z,75.41
2018-01-29T08:20:04.195Z,75.25
2018-01-29T08:22:32.670Z,75.41
2018-01-29T08:25:01.115Z,75.09
2018-01-29T08:27:29.525Z,75.47
2018-01-29T08:29:57.923Z,74.53
2018-01-29T08:32:26.410Z,74.82
2018-01-29T08:34:54.842Z,74.88
2018-01-29T08:37:23.330Z,74.86
2018-01-29T08:39:51.817Z,74.99
2018-01-29T08:42:20.240Z,74.61
2018-01-29T08:44:48.721Z,74.12
2018-01-29T08:47:17.222Z,74.57
2018-01-29T08:49:45.661Z,74.61
2018-01-29T08:52:14.405Z,73.94
2018-01-29T08:54:42.844Z,74.41
2018-01-29T08:57:11.254Z,73.80
2018-01-29T08:59:39.685Z,74.18
2018-01-29T09:02:08.175Z,74.30
2018-01-29T09:04:36.637Z,73.99
2018-01-29T09:07:05.042Z,74.25
2018-01-29T09:09:33.520Z,74.58
2018-01-29T09:12:01.938Z,74.34
2018-01-29T09:14:30.377Z,74.34
2018-01-29T09:16:58.883Z,74.02
2018-01-29T09:19:27.298Z,74.09
2018-01-29T09:21:55.728Z,74.21
2018-01-29T09:24:24.423Z,73.78
2018-01-29T09:26:52.846Z,74.13
2018-01-29T09:29:21.273Z,73.80
2018-01-29T09:31:49.748Z,73.98
2018-01-29T09:34:18.142Z,73.80
2018-01-29T09:36:46.569Z,74.55
2018-01-29T09:39:15.050Z,74.29
2018-01-29T09:41:43.470Z,73.98
2018-01-29T09:44:11.891Z,74.07
2018-01-29T09:46:40.347Z,73.88
2018-01-29T09:49:08.829Z,74.77
2018-01-29T09:51:37.239Z,73.49
2018-01-29T09:54:05.690Z,74.53
2018-01-29T09:56:34.098Z,74.09
2018-01-29T09:59:02.514Z,74.21
2018-01-29T10:01:30.994Z,73.57
2018-01-29T10:03:59.402Z,74.14
2018-01-29T10:06:27.841Z,74.03
2018-01-29T10:08:56.326Z,73.62
2018-01-29T10:11:24.751Z,73.33
2018-01-29T10:13:53.162Z,73.95
2018-01-29T10:16:21.660Z,73.55
2018-01-29T10:18:50.115Z,74.00
2018-01-29T10:21:18.514Z,73.63
2018-01-29T10:23:46.986Z,73.51
2018-01-29T10:26:15.389Z,73.49
2018-01-29T10:28:43.818Z,73.68
2018-01-29T10:31:12.501Z,73.22
2018-01-29T10:33:40.908Z,72.99
2018-01-29T10:36:09.346Z,72.85
2018-01-29T10:38:37.798Z,72.67
2018-01-29T10:41:06.201Z,73.71
2018-01-29T10:43:34.630Z,73.45
2018-01-29T10:46:03.293Z,73.35
2018-01-29T10:48:31.739Z,73.93
2018-01-29T10:51:00.159Z,73.05
2018-01-29T10:53:28.637Z,73.80
2018-01-29T10:55:57.041Z,73.69
2018-01-29T10:58:25.450Z,73.15
2018-01-29T11:03:54.117Z,73.29
2018-01-29T11:06:22.557Z,73.66
2018-01-29T11:08:50.974Z,73.84
2018-01-29T11:11:19.377Z,74.31
2018-01-29T11:13:47.821Z,74.75
2018-01-29T11:16:16.443Z,75.06
2018-01-29T11:18:44.871Z,74.49
2018-01-29T11:21:13.310Z,73.50
2018-01-29T11:23:41.747Z,73.52
2018-01-29T11:26:10.205Z,74.28
2018-01-29T11:28:38.686Z,74.51
2018-01-29T11:31:07.074Z,75.32
2018-01-29T11:33:35.488Z,74.46
2018-01-29T11:36:03.931Z,74.45
2018-01-29T11:38:32.358Z,74.09
2018-01-29T11:41:00.761Z,75.07
2018-01-29T11:43:29.226Z,74.45
2018-01-29T11:45:57.682Z,74.09
2018-01-29T11:48:26.111Z,74.09
2018-01-29T11:50:54.622Z,74.43
2018-01-29T11:53:23.068Z,74.64
2018-01-29T11:55:51.502Z,74.26
2018-01-29T11:58:19.930Z,75.42
2018-01-29T12:00:48.334Z,76.07
2018-01-29T12:03:16.756Z,77.18
2018-01-29T12:05:45.220Z,77.59
2018-01-29T12:08:13.640Z,76.80
2018-01-29T12:10:42.062Z,76.37
2018-01-29T12:13:10.503Z,73.25
2018-01-29T12:15:38.938Z,72.70
2018-01-29T12:18:07.350Z,73.32
2018-01-29T12:20:35.811Z,73.00
2018-01-29T12:23:04.244Z,73.26
2018-01-29T12:25:32.674Z,72.78
2018-01-29T12:28:01.127Z,72.74
2018-01-29T12:30:29.573Z,72.76
2018-01-29T12:32:57.978Z,72.49
2018-01-29T12:35:26.424Z,72.36
2018-01-29T12:37:54.854Z,72.70
2018-01-29T12:40:23.269Z,73.05
2018-01-29T12:42:51.709Z,72.33
2018-01-29T12:45:20.124Z,72.59
2018-01-29T12:47:48.535Z,72.23
2018-01-29T12:50:17.002Z,72.34
2018-01-29T12:52:45.837Z,72.23
2018-01-29T12:55:14.441Z,72.50
2018-01-29T12:57:43.261Z,73.20
2018-01-29T13:00:11.934Z,72.40
2018-01-29T13:02:40.701Z,73.13
2018-01-29T13:05:09.378Z,73.43
2018-01-29T13:07:38.053Z,73.99
2018-01-29T13:10:06.546Z,73.58
2018-01-29T13:12:35.175Z,73.33
2018-01-29T13:15:03.938Z,73.39
2018-01-29T13:17:32.395Z,72.66
2018-01-29T13:20:01.021Z,73.12
2018-01-29T13:22:29.804Z,72.04
2018-01-29T13:24:58.455Z,70.88
2018-01-29T13:27:27.145Z,71.41
2018-01-29T13:29:56.136Z,70.89
2018-01-29T13:32:24.958Z,70.94
2018-01-29T13:34:53.774Z,71.33
2018-01-29T13:37:22.454Z,71.65
2018-01-29T13:39:51.084Z,71.14
2018-01-29T13:42:19.772Z,71.19
2018-01-29T13:44:48.176Z,71.63
2018-01-29T13:47:16.598Z,71.88
2018-01-29T13:49:45.044Z,71.65
2018-01-29T13:52:13.453Z,72.50
2018-01-29T13:54:41.839Z,73.00
2018-01-29T13:57:10.263Z,73.28
2018-01-29T13:59:38.703Z,74.28
2018-01-29T14:02:07.145Z,74.86
2018-01-29T14:04:35.741Z,75.31
2018-01-29T14:07:04.502Z,75.92
2018-01-29T14:09:32.921Z,76.48
2018-01-29T14:12:01.386Z,76.90
2018-01-29T14:14:29.798Z,77.11
2018-01-29T14:16:58.214Z,77.29
2018-01-29T14:19:26.660Z,77.24
2018-01-29T14:21:55.291Z,78.13
2018-01-29T14:24:23.698Z,77.78
2018-01-29T14:26:52.350Z,77.37
2018-01-29T14:31:55.332Z,77.21
2018-01-29T14:34:23.758Z,75.29
2018-01-29T14:36:52.184Z,75.35
2018-01-29T14:39:20.659Z,74.42
2018-01-29T14:41:49.066Z,74.58
2018-01-29T14:44:17.462Z,74.22
2018-01-29T14:46:45.948Z,74.71
2018-01-29T14:49:14.417Z,74.20
2018-01-29T14:51:42.838Z,74.22
2018-01-29T14:54:11.293Z,74.64
2018-01-29T14:56:39.725Z,74.07
2018-01-29T14:59:08.113Z,74.23
2018-01-29T15:01:36.591Z,74.50
2018-01-29T15:04:05.004Z,73.98
2018-01-29T15:06:33.692Z,74.47
2018-01-29T15:09:02.178Z,74.14
2018-01-29T15:14:05.146Z,73.10
2018-01-29T15:16:33.635Z,73.02
2018-01-29T15:19:02.070Z,73.24
2018-01-29T15:21:30.540Z,73.06
2018-01-29T15:23:58.960Z,73.09
2018-01-29T15:26:27.392Z,73.32
2018-01-29T15:28:55.825Z,73.93
2018-01-29T15:31:24.238Z,74.12
2018-01-29T15:33:52.654Z,74.59
2018-01-29T15:36:21.078Z,75.46
2018-01-29T15:38:49.493Z,75.18
2018-01-29T15:41:17.929Z,74.76
2018-01-29T15:43:46.366Z,75.38
2018-01-29T15:46:14.783Z,75.85
2018-01-29T15:48:43.264Z,75.37
2018-01-29T15:51:11.737Z,75.73
2018-01-29T15:53:40.185Z,76.50
2018-01-29T15:56:08.580Z,75.94
2018-01-29T15:58:37.019Z,76.20
2018-01-29T16:01:05.446Z,75.87
2018-01-29T16:03:33.843Z,76.40
2018-01-29T16:06:02.289Z,76.26
2018-01-29T16:08:30.718Z,76.45
2018-01-29T16:10:59.141Z,77.43
2018-01-29T16:13:27.569Z,77.53
2018-01-29T16:15:55.989Z,78.13
2018-01-29T16:18:24.408Z,78.32
2018-01-29T16:20:52.858Z,78.25
2018-01-29T16:23:21.238Z,78.79
2018-01-29T16:25:49.636Z,78.99
2018-01-29T16:28:18.086Z,79.59
2018-01-29T16:30:46.474Z,79.49
2018-01-29T16:33:14.863Z,80.29
2018-01-29T16:35:43.321Z,80.49
2018-01-29T16:38:11.723Z,80.56
2018-01-29T16:40:40.137Z,81.77
2018-01-29T16:43:08.606Z,81.98
2018-01-29T16:45:37.062Z,82.31
2018-01-29T16:48:05.506Z,83.62
2018-01-29T16:50:33.972Z,83.93
2018-01-29T16:53:02.383Z,84.55
2018-01-29T16:55:30.789Z,85.17
2018-01-29T16:57:59.218Z,85.75
2018-01-29T17:00:27.626Z,85.97
2018-01-29T17:02:56.014Z,86.19
2018-01-29T17:05:24.433Z,86.43
2018-01-29T17:07:52.852Z,86.52
2018-01-29T17:10:21.273Z,86.87
2018-01-29T17:12:49.730Z,86.85
2018-01-29T17:15:18.133Z,86.74
2018-01-29T17:17:46.534Z,86.53
2018-01-29T17:20:14.981Z,86.63
2018-01-29T17:22:43.414Z,86.68
2018-01-29T17:25:11.790Z,86.61
2018-01-29T17:27:40.239Z,86.19
2018-01-29T17:32:43.381Z,85.53
2018-01-29T17:35:11.817Z,85.89
2018-01-29T17:37:40.200Z,85.91
2018-01-29T17:40:08.684Z,86.10
2018-01-29T17:42:37.069Z,85.87
2018-01-29T17:45:05.523Z,85.60
2018-01-29T17:47:33.936Z,85.45
2018-01-29T17:50:02.623Z,85.40
2018-01-29T17:52:31.055Z,85.51
2018-01-29T17:54:59.507Z,85.36
2018-01-29T17:57:27.899Z,85.37
2018-01-29T17:59:56.303Z,85.67
2018-01-29T18:02:24.749Z,85.39
2018-01-29T18:04:53.155Z,85.63
2018-01-29T18:07:21.541Z,85.51
2018-01-29T18:09:50.002Z,85.39
2018-01-29T18:12:18.413Z,85.43
2018-01-29T18:14:46.817Z,85.66
2018-01-29T18:17:15.274Z,85.35
2018-01-29T18:19:43.693Z,85.28
2018-01-29T18:22:12.118Z,85.53
2018-01-29T18:24:40.591Z,85.81
2018-01-29T18:27:08.979Z,85.78
2018-01-29T18:29:37.378Z,85.85
2018-01-29T18:32:05.808Z,86.27
2018-01-29T18:34:34.184Z,86.38
2018-01-29T18:37:02.629Z,86.43
2018-01-29T18:39:31.098Z,86.41
2018-01-29T18:41:59.505Z,86.43
2018-01-29T18:44:27.925Z,86.74
2018-01-29T18:46:56.345Z,86.55
2018-01-29T18:49:24.745Z,86.85
2018-01-29T18:51:53.137Z,86.51
2018-01-29T18:54:21.614Z,86.90
2018-01-29T18:56:50.022Z,86.98
2018-01-29T18:59:18.417Z,86.93
2018-01-29T19:01:46.864Z,86.64
2018-01-29T19:04:15.277Z,86.60
2018-01-29T19:06:43.666Z,86.63
2018-01-29T19:09:12.269Z,86.65
2018-01-29T19:11:40.685Z,87.03
2018-01-29T19:14:09.089Z,87.01
2018-01-29T19:16:37.545Z,87.33
2018-01-29T19:19:05.948Z,87.50
2018-01-29T19:21:34.350Z,87.41
2018-01-29T19:24:02.783Z,87.63
2018-01-29T19:26:31.174Z,87.54
2018-01-29T19:28:59.589Z,87.74
2018-01-29T19:31:28.048Z,87.96
2018-01-29T19:33:56.453Z,84.34
2018-01-29T19:36:24.833Z,83.85
2018-01-29T19:38:53.275Z,85.01
2018-01-29T19:41:21.703Z,85.79
2018-01-29T19:43:50.111Z,86.16
2018-01-29T19:46:18.604Z,85.92
2018-01-29T19:48:46.999Z,85.39
2018-01-29T19:51:15.413Z,84.54
2018-01-29T19:53:43.860Z,84.88
2018-01-29T19:56:12.266Z,85.10
2018-01-29T19:58:40.649Z,84.68
2018-01-29T20:01:09.067Z,85.21
2018-01-29T20:03:37.454Z,85.18
2018-01-29T20:06:05.844Z,85.71
2018-01-29T20:08:34.297Z,86.03
2018-01-29T20:11:02.761Z,85.93
2018-01-29T20:13:31.192Z,86.42
2018-01-29T20:15:59.669Z,86.37
2018-01-29T20:18:28.093Z,86.47
2018-01-29T20:20:56.490Z,86.41
2018-01-29T20:23:25.094Z,86.22
2018-01-29T20:25:53.490Z,86.37
2018-01-29T20:28:21.895Z,86.75
2018-01-29T20:30:50.341Z,86.87
2018-01-29T20:33:18.730Z,86.97
2018-01-29T20:35:47.146Z,86.62
2018-01-29T20:38:15.658Z,86.12
2018-01-29T20:40:44.123Z,86.14
2018-01-29T20:43:12.534Z,85.33
2018-01-29T20:45:40.986Z,85.44
2018-01-29T20:48:09.364Z,84.34
2018-01-29T20:50:37.752Z,83.85
2018-01-29T20:53:06.203Z,83.52
2018-01-29T20:55:34.578Z,84.07
2018-01-29T20:58:02.982Z,83.84
2018-01-29T21:00:31.465Z,83.73
2018-01-29T21:02:59.866Z,83.62
2018-01-29T21:05:28.255Z,83.46
2018-01-29T21:07:56.726Z,82.48
2018-01-29T21:10:25.126Z,82.87
2018-01-29T21:12:53.544Z,82.66
2018-01-29T21:15:21.974Z,81.01
2018-01-29T21:17:50.376Z,81.63
2018-01-29T21:20:18.812Z,82.18
2018-01-29T21:22:47.230Z,81.99
2018-01-29T21:25:15.633Z,81.66
2018-01-29T21:27:44.042Z,81.18
2018-01-29T21:30:12.477Z,80.98
2018-01-29T21:32:40.881Z,81.12
2018-01-29T21:35:09.258Z,81.56
2018-01-29T21:37:37.692Z,81.15
2018-01-29T21:40:06.089Z,81.65
2018-01-29T21:42:34.482Z,80.97
2018-01-29T21:45:02.950Z,80.83
2018-01-29T21:47:31.368Z,81.27
2018-01-29T21:49:59.793Z,80.11
2018-01-29T21:52:28.282Z,81.29
2018-01-29T21:54:56.672Z,81.07
2018-01-29T21:57:25.081Z,80.60
2018-01-29T21:59:54.401Z,80.80
2018-01-29T22:02:22.817Z,80.20
2018-01-29T22:04:51.212Z,78.51
2018-01-29T22:07:19.668Z,79.08
2018-01-29T22:09:48.118Z,79.41
2018-01-29T22:12:16.520Z,79.95
2018-01-29T22:14:44.960Z,80.35
2018-01-29T22:17:13.353Z,80.52
2018-01-29T22:19:41.733Z,81.28
2018-01-29T22:22:10.181Z,81.64
2018-01-29T22:24:38.598Z,82.42
2018-01-29T22:27:07.002Z,82.99
2018-01-29T22:29:35.423Z,82.57
2018-01-29T22:32:03.836Z,82.13
2018-01-29T22:34:32.246Z,82.27
2018-01-29T22:37:00.675Z,81.18
2018-01-29T22:39:29.058Z,82.97
2018-01-29T22:41:57.436Z,82.54
2018-01-29T22:44:25.859Z,83.36
2018-01-29T22:46:54.254Z,83.12
2018-01-29T22:49:22.683Z,83.83
2018-01-29T22:51:51.133Z,84.13
2018-01-29T22:54:19.526Z,83.65
2018-01-29T22:56:47.937Z,83.63
2018-01-29T22:59:16.374Z,82.59
2018-01-29T23:01:44.785Z,82.52
2018-01-29T23:04:13.184Z,82.60
2018-01-29T23:06:41.638Z,81.97
2018-01-29T23:09:10.034Z,82.11
2018-01-29T23:11:38.445Z,81.70
2018-01-29T23:14:06.884Z,82.14
2018-01-29T23:16:35.274Z,81.61
2018-01-29T23:19:03.696Z,81.64
2018-01-29T23:21:32.145Z,82.21
2018-01-29T23:24:00.571Z,82.12
2018-01-29T23:26:28.994Z,81.82
2018-01-29T23:28:57.442Z,81.30
2018-01-29T23:31:25.906Z,81.34
2018-01-29T23:33:54.310Z,81.23
2018-01-29T23:36:22.742Z,81.26
2018-01-29T23:38:51.129Z,80.82
2018-01-29T23:41:19.551Z,80.94
2018-01-29T23:43:48.032Z,80.93
2018-01-29T23:46:16.444Z,80.86
2018-01-29T23:48:44.821Z,80.94
2018-01-29T23:51:13.290Z,81.08
2018-01-29T23:53:41.707Z,80.07
2018-01-29T23:56:10.130Z,80.79
2018-01-29T23:58:38.594Z,80.67
